createdAt,value
2023-03-02T00:02:01.770Z,-0.71
2023-03-02T00:05:06.884Z,-0.72
2023-03-02T00:08:10.904Z,-0.76
2023-03-02T00:11:15.460Z,-0.80
2023-03-02T00:14:18.960Z,-0.80
2023-03-02T00:17:27.882Z,-0.76
2023-03-02T00:20:31.371Z,-0.76
2023-03-02T00:23:37.037Z,-0.81
2023-03-02T00:26:40.121Z,-0.84
2023-03-02T00:29:43.372Z,-0.80
2023-03-02T00:32:48.337Z,-0.77
2023-03-02T00:35:51.367Z,-0.82
2023-03-02T00:38:58.180Z,-0.86
2023-03-02T00:42:01.236Z,-0.84
2023-03-02T00:45:05.124Z,-0.82
2023-03-02T00:48:09.989Z,-0.82
2023-03-02T00:51:14.151Z,-0.85
2023-03-02T00:54:17.406Z,-0.81
2023-03-02T00:57:20.528Z,-0.76
2023-03-02T01:00:27.390Z,-0.73
2023-03-02T01:03:33.937Z,-0.68
2023-03-02T01:06:47.213Z,-0.77
2023-03-02T01:09:50.324Z,-0.78
2023-03-02T01:12:53.349Z,-0.80
2023-03-02T01:16:03.936Z,-0.81
2023-03-02T01:19:08.773Z,-0.81
2023-03-02T01:22:12.187Z,-0.77
2023-03-02T01:25:15.290Z,-0.81
2023-03-02T01:28:18.609Z,-0.77
2023-03-02T01:31:22.926Z,-0.74
2023-03-02T01:34:27.698Z,-0.67
2023-03-02T01:37:31.348Z,-0.71
2023-03-02T01:40:34.946Z,-0.73
2023-03-02T01:43:38.296Z,-0.76
2023-03-02T01:46:41.332Z,-0.77
2023-03-02T01:49:51.513Z,-0.79
2023-03-02T01:52:56.330Z,-0.79
2023-03-02T01:56:03.322Z,-0.79
2023-03-02T01:59:10.878Z,-0.77
2023-03-02T02:02:14.232Z,-0.81
2023-03-02T02:05:23.212Z,-0.85
2023-03-02T02:08:27.132Z,-0.87
2023-03-02T02:11:31.270Z,-0.88
2023-03-02T02:14:34.626Z,-0.93
2023-03-02T02:17:38.018Z,-0.96
2023-03-02T02:20:46.298Z,-0.98
2023-03-02T02:24:07.818Z,-0.93
2023-03-02T02:27:13.336Z,-0.84
2023-03-02T02:30:17.602Z,-0.86
2023-03-02T02:33:24.670Z,-0.84
2023-03-02T02:36:34.322Z,-0.91
2023-03-02T02:39:48.379Z,-0.96
2023-03-02T02:42:54.675Z,-0.94
2023-03-02T02:46:00.210Z,-1.00
2023-03-02T02:49:04.782Z,-1.02
2023-03-02T02:52:11.811Z,-1.00
2023-03-02T02:55:21.688Z,-1.05
2023-03-02T02:58:35.453Z,-1.07
2023-03-02T03:01:39.292Z,-1.08
2023-03-02T03:04:43.700Z,-1.13
2023-03-02T03:07:46.893Z,-1.18
2023-03-02T03:10:52.572Z,-1.20
2023-03-02T03:14:04.387Z,-1.24
2023-03-02T03:17:12.538Z,-1.25
2023-03-02T03:20:23.392Z,-1.28
2023-03-02T03:23:26.708Z,-1.36
2023-03-02T03:26:31.015Z,-1.42
2023-03-02T03:29:37.749Z,-1.39
2023-03-02T03:32:43.027Z,-1.37
2023-03-02T03:35:46.215Z,-1.40
2023-03-02T03:38:49.701Z,-1.38
2023-03-02T03:41:52.972Z,-1.35
2023-03-02T03:44:57.572Z,-1.35
2023-03-02T03:48:00.786Z,-1.41
2023-03-02T03:51:04.281Z,-1.44
2023-03-02T03:54:10.961Z,-1.46
2023-03-02T03:57:16.696Z,-1.49
2023-03-02T04:00:23.232Z,-1.57
2023-03-02T04:03:32.675Z,-1.61
2023-03-02T04:06:37.030Z,-1.64
2023-03-02T04:09:41.345Z,-1.55
2023-03-02T04:12:47.221Z,-1.52
2023-03-02T04:15:53.672Z,-1.57
2023-03-02T04:18:57.846Z,-1.61
2023-03-02T04:22:03.950Z,-1.64
2023-03-02T04:25:12.468Z,-1.64
2023-03-02T04:28:17.598Z,-1.57
2023-03-02T04:31:23.202Z,-1.60
2023-03-02T04:34:26.577Z,-1.61
2023-03-02T04:37:30.461Z,-1.67
2023-03-02T04:40:33.589Z,-1.66
2023-03-02T04:43:36.626Z,-1.71
2023-03-02T04:46:44.221Z,-1.72
2023-03-02T04:49:49.904Z,-1.73
2023-03-02T04:52:52.967Z,-1.68
2023-03-02T04:55:55.941Z,-1.69
2023-03-02T04:59:00.579Z,-1.62
2023-03-02T05:02:05.153Z,-1.67
2023-03-02T05:05:10.346Z,-1.58
2023-03-02T05:08:14.807Z,-1.48
2023-03-02T05:11:22.808Z,-1.42
2023-03-02T05:14:27.311Z,-1.36
2023-03-02T05:17:31.623Z,-1.37
2023-03-02T05:20:35.420Z,-1.39
2023-03-02T05:23:38.604Z,-1.39
2023-03-02T05:26:41.744Z,-1.42
2023-03-02T05:29:44.908Z,-1.39
2023-03-02T05:32:49.412Z,-1.39
2023-03-02T05:35:52.508Z,-1.38
2023-03-02T05:38:55.597Z,-1.39
2023-03-02T05:41:58.729Z,-1.40
2023-03-02T05:45:01.720Z,-1.34
2023-03-02T05:48:07.795Z,-1.35
2023-03-02T05:51:10.766Z,-1.35
2023-03-02T05:54:13.772Z,-1.33
2023-03-02T05:57:16.873Z,-1.25
2023-03-02T06:00:21.914Z,-1.13
2023-03-02T06:03:26.397Z,-1.19
2023-03-02T06:06:29.910Z,-1.18
2023-03-02T06:09:33.362Z,-1.19
2023-03-02T06:12:36.678Z,-1.15
2023-03-02T06:15:40.526Z,-1.16
2023-03-02T06:18:44.892Z,-1.10
2023-03-02T06:21:47.919Z,-1.13
2023-03-02T06:24:51.014Z,-1.16
2023-03-02T06:27:54.458Z,-1.13
2023-03-02T06:30:59.416Z,-1.11
2023-03-02T06:34:03.819Z,-1.12
2023-03-02T06:37:06.881Z,-1.06
2023-03-02T06:40:12.032Z,-0.93
2023-03-02T06:43:15.880Z,-0.96
2023-03-02T06:46:18.941Z,-0.97
2023-03-02T06:49:24.292Z,-0.95
2023-03-02T06:52:28.272Z,-0.99
2023-03-02T06:55:31.301Z,-1.06
2023-03-02T06:58:34.310Z,-1.21
2023-03-02T07:01:37.446Z,-1.30
2023-03-02T07:04:41.956Z,-1.26
2023-03-02T07:07:45.504Z,-1.33
2023-03-02T07:10:48.562Z,-1.33
2023-03-02T07:13:51.568Z,-1.30
2023-03-02T07:16:57.371Z,-1.26
2023-03-02T07:20:01.762Z,-1.34
2023-03-02T07:23:05.664Z,-1.32
2023-03-02T07:26:08.942Z,-1.46
2023-03-02T07:29:14.383Z,-1.53
2023-03-02T07:32:17.525Z,-1.61
2023-03-02T07:35:22.301Z,-1.47
2023-03-02T07:38:25.395Z,-1.57
2023-03-02T07:41:28.391Z,-1.48
2023-03-02T07:44:32.097Z,-1.42
2023-03-02T07:47:35.352Z,-1.48
2023-03-02T07:50:39.739Z,-1.47
2023-03-02T07:53:43.070Z,-1.35
2023-03-02T07:56:46.310Z,-1.33
2023-03-02T07:59:49.568Z,-1.27
2023-03-02T08:02:52.757Z,-1.36
2023-03-02T08:05:57.178Z,-1.26
2023-03-02T08:09:00.862Z,-1.20
2023-03-02T08:12:04.215Z,-1.04
2023-03-02T08:15:08.839Z,-0.88
2023-03-02T08:18:12.222Z,-0.80
2023-03-02T08:21:20.073Z,-0.83
2023-03-02T08:24:23.040Z,-0.85
2023-03-02T08:27:26.245Z,-1.00
2023-03-02T08:30:29.233Z,-1.00
2023-03-02T08:33:32.558Z,-0.99
2023-03-02T08:36:37.100Z,-0.77
2023-03-02T08:39:40.073Z,-0.77
2023-03-02T08:42:43.024Z,-0.69
2023-03-02T08:45:46.379Z,-0.69
2023-03-02T08:48:51.214Z,-0.65
2023-03-02T08:51:56.467Z,-0.52
2023-03-02T08:55:01.123Z,-0.48
2023-03-02T08:58:05.475Z,-0.60
2023-03-02T09:01:15.283Z,-0.55
2023-03-02T09:04:18.657Z,-0.44
2023-03-02T09:07:23.510Z,-0.44
2023-03-02T09:10:26.900Z,-0.37
2023-03-02T09:13:30.380Z,-0.36
2023-03-02T09:16:33.416Z,-0.38
2023-03-02T09:19:43.916Z,-0.18
2023-03-02T09:22:50.817Z,-0.17
2023-03-02T09:25:54.807Z,-0.05
2023-03-02T09:28:57.931Z,-0.10
2023-03-02T09:32:01.209Z,-0.12
2023-03-02T09:35:04.433Z,-0.03
2023-03-02T09:38:12.703Z,0.02
2023-03-02T09:41:58.505Z,0.04
2023-03-02T09:45:17.059Z,0.25
2023-03-02T09:48:35.510Z,0.53
2023-03-02T09:51:46.641Z,0.80
2023-03-02T09:54:51.047Z,0.62
2023-03-02T09:57:55.927Z,0.55
2023-03-02T10:01:02.389Z,0.55
2023-03-02T10:04:18.446Z,0.63
2023-03-02T10:07:27.569Z,0.68
2023-03-02T10:10:42.429Z,0.72
2023-03-02T10:13:52.535Z,0.95
2023-03-02T10:17:10.823Z,1.11
2023-03-02T10:20:22.836Z,1.18
2023-03-02T10:23:42.976Z,1.13
2023-03-02T10:26:51.455Z,1.12
2023-03-02T10:30:02.267Z,1.16
2023-03-02T10:33:13.441Z,1.21
2023-03-02T10:36:26.251Z,1.14
2023-03-02T10:39:29.765Z,1.25
2023-03-02T10:42:40.305Z,1.34
2023-03-02T10:45:44.046Z,1.18
2023-03-02T10:48:52.674Z,1.37
2023-03-02T10:52:02.439Z,1.34
2023-03-02T10:55:07.779Z,1.49
2023-03-02T10:58:26.756Z,1.75
2023-03-02T11:01:31.591Z,1.87
2023-03-02T11:04:34.777Z,1.99
2023-03-02T11:07:38.077Z,1.94
2023-03-02T11:10:51.639Z,1.95
2023-03-02T11:13:57.126Z,1.94
2023-03-02T11:17:03.292Z,2.06
2023-03-02T11:20:15.990Z,2.42
2023-03-02T11:23:27.654Z,2.66
2023-03-02T11:26:39.014Z,3.04
2023-03-02T11:29:51.021Z,3.23
2023-03-02T11:33:01.308Z,3.03
2023-03-02T11:36:13.401Z,3.08
2023-03-02T11:39:24.435Z,3.06
2023-03-02T11:42:32.353Z,3.61
2023-03-02T11:45:42.869Z,3.42
2023-03-02T11:48:50.777Z,3.72
2023-03-02T11:51:59.246Z,3.65
2023-03-02T11:55:17.361Z,3.85
2023-03-02T11:58:23.550Z,3.86
2023-03-02T12:01:29.460Z,3.88
2023-03-02T12:04:35.869Z,4.02
2023-03-02T12:07:38.876Z,4.10
2023-03-02T12:10:46.906Z,4.22
2023-03-02T12:14:01.849Z,4.23
2023-03-02T12:17:20.106Z,4.63
2023-03-02T12:20:34.667Z,4.78
2023-03-02T12:23:55.695Z,4.58
2023-03-02T12:27:04.970Z,4.72
2023-03-02T12:30:26.466Z,4.54
2023-03-02T12:33:30.866Z,4.66
2023-03-02T12:36:43.566Z,4.93
2023-03-02T12:40:26.833Z,5.17
2023-03-02T12:43:37.680Z,5.00
2023-03-02T12:46:47.527Z,5.08
2023-03-02T12:49:56.764Z,5.09
2023-03-02T12:53:02.223Z,5.32
2023-03-02T12:56:05.990Z,5.35
2023-03-02T12:59:21.308Z,5.23
2023-03-02T13:02:26.959Z,4.73
2023-03-02T13:05:34.183Z,5.47
2023-03-02T13:08:37.444Z,5.26
2023-03-02T13:11:40.559Z,5.17
2023-03-02T13:14:48.884Z,4.90
2023-03-02T13:17:56.661Z,4.73
2023-03-02T13:21:02.580Z,5.10
2023-03-02T13:24:28.217Z,5.01
2023-03-02T13:27:34.187Z,4.94
2023-03-02T13:30:43.502Z,5.00
2023-03-02T13:33:48.826Z,5.24
2023-03-02T13:36:53.681Z,5.05
2023-03-02T13:39:59.749Z,5.47
2023-03-02T13:43:02.750Z,5.49
2023-03-02T13:46:27.003Z,5.48
2023-03-02T13:49:32.508Z,5.10
2023-03-02T13:52:37.327Z,4.98
2023-03-02T13:55:41.218Z,5.55
2023-03-02T13:58:44.353Z,5.48
2023-03-02T14:01:48.801Z,5.38
2023-03-02T14:04:52.120Z,5.77
2023-03-02T14:07:56.492Z,5.70
2023-03-02T14:11:02.095Z,5.14
2023-03-02T14:14:06.895Z,5.43
2023-03-02T14:17:15.686Z,5.16
2023-03-02T14:20:21.143Z,4.82
2023-03-02T14:23:26.365Z,4.53
2023-03-02T14:26:35.274Z,4.24
2023-03-02T14:29:39.647Z,4.04
2023-03-02T14:32:42.712Z,4.02
2023-03-02T14:35:46.445Z,4.02
2023-03-02T14:38:50.840Z,3.92
2023-03-02T14:41:55.053Z,3.72
2023-03-02T14:44:59.867Z,3.61
2023-03-02T14:48:02.992Z,3.90
2023-03-02T14:51:06.607Z,3.44
2023-03-02T14:54:19.173Z,3.07
2023-03-02T14:57:26.053Z,2.85
2023-03-02T15:00:29.454Z,2.99
2023-03-02T15:03:32.532Z,2.99
2023-03-02T15:06:39.966Z,2.62
2023-03-02T15:09:44.719Z,2.79
2023-03-02T15:12:47.887Z,2.92
2023-03-02T15:15:52.746Z,2.96
2023-03-02T15:18:58.711Z,3.22
2023-03-02T15:22:02.676Z,2.86
2023-03-02T15:25:07.787Z,2.54
2023-03-02T15:28:11.368Z,2.45
2023-03-02T15:31:17.644Z,2.42
2023-03-02T15:34:20.826Z,2.41
2023-03-02T15:37:23.843Z,2.63
2023-03-02T15:40:28.538Z,2.46
2023-03-02T15:43:31.518Z,2.09
2023-03-02T15:46:34.589Z,2.23
2023-03-02T15:49:38.041Z,2.11
2023-03-02T15:52:41.548Z,2.09
2023-03-02T15:55:46.160Z,2.09
2023-03-02T15:58:50.360Z,1.97
2023-03-02T16:01:53.975Z,2.04
2023-03-02T16:04:57.024Z,2.15
2023-03-02T16:08:00.021Z,1.87
2023-03-02T16:11:07.225Z,1.88
2023-03-02T16:14:10.432Z,2.01
2023-03-02T16:17:13.567Z,1.94
2023-03-02T16:20:16.925Z,1.94
2023-03-02T16:23:20.356Z,1.71
2023-03-02T16:26:24.709Z,1.64
2023-03-02T16:29:27.826Z,1.53
2023-03-02T16:32:33.023Z,1.44
2023-03-02T16:35:38.489Z,1.44
2023-03-02T16:38:41.818Z,1.43
2023-03-02T16:41:46.943Z,1.29
2023-03-02T16:44:51.350Z,1.24
2023-03-02T16:47:55.064Z,1.14
2023-03-02T16:50:59.229Z,1.27
2023-03-02T16:54:02.369Z,1.14
2023-03-02T16:57:08.339Z,1.03
2023-03-02T17:00:16.437Z,1.17
2023-03-02T17:03:20.315Z,1.16
2023-03-02T17:06:24.655Z,1.21
2023-03-02T17:09:27.884Z,1.29
2023-03-02T17:12:32.250Z,1.22
2023-03-02T17:15:35.373Z,1.18
2023-03-02T17:18:40.919Z,1.12
2023-03-02T17:21:43.962Z,1.16
2023-03-02T17:24:47.014Z,1.31
2023-03-02T17:27:51.306Z,1.25
2023-03-02T17:30:54.414Z,1.22
2023-03-02T17:33:57.411Z,1.13
2023-03-02T17:37:01.087Z,1.09
2023-03-02T17:40:05.983Z,1.01
2023-03-02T17:43:12.381Z,0.87
2023-03-02T17:46:20.210Z,1.10
2023-03-02T17:49:23.354Z,1.22
2023-03-02T17:52:27.568Z,1.13
2023-03-02T17:55:31.964Z,1.23
2023-03-02T17:58:44.768Z,1.27
2023-03-02T18:01:48.496Z,1.31
2023-03-02T18:04:52.115Z,1.31
2023-03-02T18:07:55.246Z,1.14
2023-03-02T18:10:58.306Z,1.05
2023-03-02T18:14:03.009Z,1.07
2023-03-02T18:17:08.756Z,1.01
2023-03-02T18:20:13.640Z,1.08
2023-03-02T18:23:16.817Z,1.10
2023-03-02T18:26:19.813Z,1.06
2023-03-02T18:29:24.625Z,1.08
2023-03-02T18:32:28.184Z,1.10
2023-03-02T18:35:32.832Z,1.07
2023-03-02T18:38:37.726Z,0.94
2023-03-02T18:41:41.230Z,0.91
2023-03-02T18:44:45.722Z,1.09
2023-03-02T18:47:48.827Z,1.19
2023-03-02T18:50:52.131Z,1.12
2023-03-02T18:53:56.241Z,0.95
2023-03-02T18:56:59.917Z,0.93
2023-03-02T19:00:07.539Z,0.82
2023-03-02T19:03:10.759Z,0.74
2023-03-02T19:06:15.185Z,0.65
2023-03-02T19:09:18.188Z,0.68
2023-03-02T19:12:21.226Z,0.79
2023-03-02T19:15:25.804Z,0.78
2023-03-02T19:18:30.946Z,0.73
2023-03-02T19:21:34.008Z,0.73
2023-03-02T19:24:37.327Z,0.55
2023-03-02T19:27:40.755Z,0.51
2023-03-02T19:30:45.220Z,0.51
2023-03-02T19:33:48.542Z,0.40
2023-03-02T19:36:51.782Z,0.42
2023-03-02T19:39:54.849Z,0.47
2023-03-02T19:42:58.183Z,0.47
2023-03-02T19:46:02.760Z,0.43
2023-03-02T19:49:06.321Z,0.47
2023-03-02T19:52:11.022Z,0.59
2023-03-02T19:55:16.011Z,0.49
2023-03-02T19:58:20.493Z,0.53
2023-03-02T20:01:27.780Z,0.61
2023-03-02T20:04:31.425Z,0.74
2023-03-02T20:07:34.587Z,0.65
2023-03-02T20:10:42.572Z,0.58
2023-03-02T20:13:45.799Z,0.55
2023-03-02T20:16:51.536Z,0.49
2023-03-02T20:19:55.955Z,0.46
2023-03-02T20:23:00.057Z,0.31
2023-03-02T20:26:03.824Z,0.16
2023-03-02T20:29:07.158Z,0.19
2023-03-02T20:32:14.055Z,0.25
2023-03-02T20:35:17.593Z,0.28
2023-03-02T20:38:29.048Z,0.22
2023-03-02T20:41:32.401Z,0.26
2023-03-02T20:44:35.571Z,0.24
2023-03-02T20:47:41.015Z,0.26
2023-03-02T20:50:44.856Z,0.24
2023-03-02T20:53:47.938Z,0.30
2023-03-02T20:56:51.603Z,0.19
2023-03-02T20:59:55.007Z,0.20
2023-03-02T21:02:59.957Z,0.13
2023-03-02T21:06:04.032Z,0.11
2023-03-02T21:09:10.168Z,0.04
2023-03-02T21:12:13.322Z,0.10
2023-03-02T21:15:17.462Z,-0.01
2023-03-02T21:18:21.846Z,0.08
2023-03-02T21:21:40.370Z,0.00
2023-03-02T21:24:44.310Z,-0.02
2023-03-02T21:27:47.792Z,-0.05
2023-03-02T21:30:50.930Z,0.05
2023-03-02T21:33:55.301Z,0.10
2023-03-02T21:36:59.496Z,0.18
2023-03-02T21:40:02.664Z,0.25
2023-03-02T21:43:06.799Z,0.24
2023-03-02T21:46:12.144Z,0.15
2023-03-02T21:49:19.602Z,0.21
2023-03-02T21:52:27.182Z,0.23
2023-03-02T21:55:31.206Z,0.25
2023-03-02T21:58:34.415Z,0.13
2023-03-02T22:01:37.448Z,0.14
2023-03-02T22:04:41.866Z,0.06
2023-03-02T22:07:45.150Z,-0.06
2023-03-02T22:10:50.829Z,-0.12
2023-03-02T22:13:55.923Z,-0.23
2023-03-02T22:16:59.468Z,-0.26
2023-03-02T22:20:13.980Z,-0.31
2023-03-02T22:23:21.174Z,-0.24
2023-03-02T22:26:24.289Z,-0.24
2023-03-02T22:29:29.887Z,-0.13
2023-03-02T22:32:37.973Z,-0.17
2023-03-02T22:35:42.736Z,0.05
2023-03-02T22:38:45.734Z,-0.06
2023-03-02T22:41:48.877Z,0.04
2023-03-02T22:45:01.099Z,0.07
2023-03-02T22:48:07.844Z,-0.04
2023-03-02T22:51:18.468Z,-0.12
2023-03-02T22:54:25.563Z,-0.07
2023-03-02T22:57:32.213Z,-0.31
2023-03-02T23:00:38.739Z,-0.33
2023-03-02T23:03:45.959Z,-0.42
2023-03-02T23:06:52.638Z,-0.41
2023-03-02T23:09:56.004Z,-0.28
2023-03-02T23:12:59.059Z,-0.25
2023-03-02T23:16:02.662Z,-0.35
2023-03-02T23:19:06.100Z,-0.21
2023-03-02T23:22:11.584Z,-0.26
2023-03-02T23:25:15.738Z,-0.25
2023-03-02T23:28:18.821Z,-0.08
2023-03-02T23:31:22.283Z,-0.04
2023-03-02T23:34:25.734Z,-0.20
2023-03-02T23:37:30.526Z,-0.35
2023-03-02T23:40:33.729Z,-0.40
2023-03-02T23:43:37.011Z,-0.33
2023-03-02T23:46:40.586Z,-0.35
2023-03-02T23:49:43.648Z,-0.44
2023-03-02T23:52:49.221Z,-0.32
2023-03-02T23:55:55.614Z,-0.32
2023-03-02T23:58:58.633Z,-0.36
